sensor_id;sensor_type;location;lat;lon;timestamp;temperature;humidity
42841;DHT22;28491;46.898;7.660;2023-06-01T00:01:31;13.90;12.50
42841;DHT22;28491;46.898;7.660;2023-06-01T00:04:03;13.90;14.00
42841;DHT22;28491;46.898;7.660;2023-06-01T00:06:29;13.90;13.30
42841;DHT22;28491;46.898;7.660;2023-06-01T00:08:56;14.00;13.90
42841;DHT22;28491;46.898;7.660;2023-06-01T00:11:23;14.10;12.60
42841;DHT22;28491;46.898;7.660;2023-06-01T00:13:49;14.00;12.80
42841;DHT22;28491;46.898;7.660;2023-06-01T00:16:15;14.10;12.60
42841;DHT22;28491;46.898;7.660;2023-06-01T00:18:41;14.10;11.20
42841;DHT22;28491;46.898;7.660;2023-06-01T00:21:06;14.10;12.20
42841;DHT22;28491;46.898;7.660;2023-06-01T00:23:32;14.00;13.60
42841;DHT22;28491;46.898;7.660;2023-06-01T00:25:59;14.00;13.90
42841;DHT22;28491;46.898;7.660;2023-06-01T00:28:25;14.00;14.80
42841;DHT22;28491;46.898;7.660;2023-06-01T00:30:51;13.90;13.60
42841;DHT22;28491;46.898;7.660;2023-06-01T00:33:18;14.00;13.40
42841;DHT22;28491;46.898;7.660;2023-06-01T00:35:44;14.00;13.00
42841;DHT22;28491;46.898;7.660;2023-06-01T00:38:09;14.00;14.50
42841;DHT22;28491;46.898;7.660;2023-06-01T00:40:35;13.90;13.30
42841;DHT22;28491;46.898;7.660;2023-06-01T00:43:00;13.90;13.20
42841;DHT22;28491;46.898;7.660;2023-06-01T00:45:26;13.90;15.40
42841;DHT22;28491;46.898;7.660;2023-06-01T00:47:52;13.80;15.70
42841;DHT22;28491;46.898;7.660;2023-06-01T00:50:18;13.80;16.50
42841;DHT22;28491;46.898;7.660;2023-06-01T00:52:45;13.80;16.40
42841;DHT22;28491;46.898;7.660;2023-06-01T00:55:11;13.80;17.00
42841;DHT22;28491;46.898;7.660;2023-06-01T00:57:42;13.80;16.90
42841;DHT22;28491;46.898;7.660;2023-06-01T01:00:08;13.80;16.10
42841;DHT22;28491;46.898;7.660;2023-06-01T01:02:39;13.80;15.30
42841;DHT22;28491;46.898;7.660;2023-06-01T01:05:06;13.80;16.80
42841;DHT22;28491;46.898;7.660;2023-06-01T01:10:39;13.80;15.50
42841;DHT22;28491;46.898;7.660;2023-06-01T01:13:13;13.60;16.40
42841;DHT22;28491;46.898;7.660;2023-06-01T01:18:15;13.50;20.40
42841;DHT22;28491;46.898;7.660;2023-06-01T01:20:50;13.50;21.20
42841;DHT22;28491;46.898;7.660;2023-06-01T01:23:43;13.50;20.80
42841;DHT22;28491;46.898;7.660;2023-06-01T01:26:43;13.40;20.90
42841;DHT22;28491;46.898;7.660;2023-06-01T01:29:12;13.40;21.50
42841;DHT22;28491;46.898;7.660;2023-06-01T01:31:39;13.30;22.30
42841;DHT22;28491;46.898;7.660;2023-06-01T01:34:06;13.30;23.40
42841;DHT22;28491;46.898;7.660;2023-06-01T01:36:33;13.30;22.80
42841;DHT22;28491;46.898;7.660;2023-06-01T01:38:59;13.30;22.90
42841;DHT22;28491;46.898;7.660;2023-06-01T01:41:24;13.30;22.00
42841;DHT22;28491;46.898;7.660;2023-06-01T01:43:51;13.30;22.50
42841;DHT22;28491;46.898;7.660;2023-06-01T01:46:29;13.20;23.60
42841;DHT22;28491;46.898;7.660;2023-06-01T01:51:56;13.10;23.20
42841;DHT22;28491;46.898;7.660;2023-06-01T01:54:24;13.20;23.90
42841;DHT22;28491;46.898;7.660;2023-06-01T01:56:53;13.20;23.30
42841;DHT22;28491;46.898;7.660;2023-06-01T01:59:23;13.20;23.30
42841;DHT22;28491;46.898;7.660;2023-06-01T02:01:50;13.20;22.00
42841;DHT22;28491;46.898;7.660;2023-06-01T02:04:15;13.20;22.20
42841;DHT22;28491;46.898;7.660;2023-06-01T02:06:41;13.20;22.60
42841;DHT22;28491;46.898;7.660;2023-06-01T02:09:06;13.10;22.70
42841;DHT22;28491;46.898;7.660;2023-06-01T02:11:33;13.20;24.50
42841;DHT22;28491;46.898;7.660;2023-06-01T02:13:59;13.20;23.90
42841;DHT22;28491;46.898;7.660;2023-06-01T02:16:24;13.30;23.10
42841;DHT22;28491;46.898;7.660;2023-06-01T02:18:51;13.30;22.80
42841;DHT22;28491;46.898;7.660;2023-06-01T02:21:18;13.30;21.20
42841;DHT22;28491;46.898;7.660;2023-06-01T02:23:43;13.20;21.90
42841;DHT22;28491;46.898;7.660;2023-06-01T02:26:09;13.20;22.60
42841;DHT22;28491;46.898;7.660;2023-06-01T02:28:38;13.10;22.80
42841;DHT22;28491;46.898;7.660;2023-06-01T02:31:06;13.00;24.60
42841;DHT22;28491;46.898;7.660;2023-06-01T02:33:32;13.10;24.90
42841;DHT22;28491;46.898;7.660;2023-06-01T02:35:58;13.10;23.80
42841;DHT22;28491;46.898;7.660;2023-06-01T02:38:24;13.20;24.20
42841;DHT22;28491;46.898;7.660;2023-06-01T02:40:49;13.10;23.10
42841;DHT22;28491;46.898;7.660;2023-06-01T02:43:15;13.20;22.40
42841;DHT22;28491;46.898;7.660;2023-06-01T02:45:40;13.20;21.80
42841;DHT22;28491;46.898;7.660;2023-06-01T02:48:06;13.20;22.50
42841;DHT22;28491;46.898;7.660;2023-06-01T02:50:32;13.20;21.50
42841;DHT22;28491;46.898;7.660;2023-06-01T02:52:57;13.10;21.60
42841;DHT22;28491;46.898;7.660;2023-06-01T02:55:23;13.10;22.50
42841;DHT22;28491;46.898;7.660;2023-06-01T02:57:48;13.00;23.00
42841;DHT22;28491;46.898;7.660;2023-06-01T03:00:14;13.00;25.40
42841;DHT22;28491;46.898;7.660;2023-06-01T03:02:44;12.90;24.00
42841;DHT22;28491;46.898;7.660;2023-06-01T03:05:11;12.90;24.80
42841;DHT22;28491;46.898;7.660;2023-06-01T03:07:43;12.90;25.30
42841;DHT22;28491;46.898;7.660;2023-06-01T03:10:09;12.90;27.20
42841;DHT22;28491;46.898;7.660;2023-06-01T03:12:35;12.90;26.10
42841;DHT22;28491;46.898;7.660;2023-06-01T03:15:01;12.90;26.70
42841;DHT22;28491;46.898;7.660;2023-06-01T03:17:27;12.80;25.20
42841;DHT22;28491;46.898;7.660;2023-06-01T03:19:52;12.80;25.80
42841;DHT22;28491;46.898;7.660;2023-06-01T03:22:18;12.80;28.20
42841;DHT22;28491;46.898;7.660;2023-06-01T03:24:43;12.80;27.70
42841;DHT22;28491;46.898;7.660;2023-06-01T03:27:10;12.70;29.20
42841;DHT22;28491;46.898;7.660;2023-06-01T03:29:38;12.70;28.80
42841;DHT22;28491;46.898;7.660;2023-06-01T03:32:04;12.70;28.90
42841;DHT22;28491;46.898;7.660;2023-06-01T03:34:30;12.60;30.00
42841;DHT22;28491;46.898;7.660;2023-06-01T03:36:58;12.60;30.40
42841;DHT22;28491;46.898;7.660;2023-06-01T03:39:23;12.60;29.60
42841;DHT22;28491;46.898;7.660;2023-06-01T03:41:49;12.60;29.10
42841;DHT22;28491;46.898;7.660;2023-06-01T03:44:15;12.40;30.40
42841;DHT22;28491;46.898;7.660;2023-06-01T03:46:40;12.40;33.30
42841;DHT22;28491;46.898;7.660;2023-06-01T03:49:06;12.30;33.90
42841;DHT22;28491;46.898;7.660;2023-06-01T03:51:32;12.30;34.70
42841;DHT22;28491;46.898;7.660;2023-06-01T03:53:57;12.40;36.40
42841;DHT22;28491;46.898;7.660;2023-06-01T03:56:23;12.40;36.50
42841;DHT22;28491;46.898;7.660;2023-06-01T03:58:49;12.30;34.70
42841;DHT22;28491;46.898;7.660;2023-06-01T04:01:15;12.30;34.20
42841;DHT22;28491;46.898;7.660;2023-06-01T04:03:46;12.30;36.00
42841;DHT22;28491;46.898;7.660;2023-06-01T04:06:13;12.30;35.90
42841;DHT22;28491;46.898;7.660;2023-06-01T04:08:43;12.30;36.10
42841;DHT22;28491;46.898;7.660;2023-06-01T04:11:14;12.30;36.20
42841;DHT22;28491;46.898;7.660;2023-06-01T04:13:40;12.30;36.30
42841;DHT22;28491;46.898;7.660;2023-06-01T04:16:06;12.30;36.60
42841;DHT22;28491;46.898;7.660;2023-06-01T04:18:32;12.40;35.90
42841;DHT22;28491;46.898;7.660;2023-06-01T04:20:57;12.40;33.70
42841;DHT22;28491;46.898;7.660;2023-06-01T04:23:23;12.40;33.20
42841;DHT22;28491;46.898;7.660;2023-06-01T04:25:48;12.40;32.70
42841;DHT22;28491;46.898;7.660;2023-06-01T04:28:17;12.50;33.10
42841;DHT22;28491;46.898;7.660;2023-06-01T04:30:43;12.50;32.00
42841;DHT22;28491;46.898;7.660;2023-06-01T04:33:16;12.60;32.90
42841;DHT22;28491;46.898;7.660;2023-06-01T04:35:42;12.70;33.10
42841;DHT22;28491;46.898;7.660;2023-06-01T04:38:08;12.70;30.00
42841;DHT22;28491;46.898;7.660;2023-06-01T04:40:34;12.70;30.10
42841;DHT22;28491;46.898;7.660;2023-06-01T04:43:00;12.80;30.30
42841;DHT22;28491;46.898;7.660;2023-06-01T04:45:28;12.90;29.80
42841;DHT22;28491;46.898;7.660;2023-06-01T04:47:59;13.00;30.20
42841;DHT22;28491;46.898;7.660;2023-06-01T04:50:24;13.10;28.30
42841;DHT22;28491;46.898;7.660;2023-06-01T04:52:50;13.20;26.90
42841;DHT22;28491;46.898;7.660;2023-06-01T04:55:16;13.20;26.20
42841;DHT22;28491;46.898;7.660;2023-06-01T04:57:42;13.30;24.90
42841;DHT22;28491;46.898;7.660;2023-06-01T05:00:12;13.40;24.80
42841;DHT22;28491;46.898;7.660;2023-06-01T05:02:42;13.50;20.90
42841;DHT22;28491;46.898;7.660;2023-06-01T05:05:09;13.70;20.00
42841;DHT22;28491;46.898;7.660;2023-06-01T05:07:36;13.80;18.60
42841;DHT22;28491;46.898;7.660;2023-06-01T05:10:03;13.90;15.70
42841;DHT22;28491;46.898;7.660;2023-06-01T05:12:34;13.90;16.70
42841;DHT22;28491;46.898;7.660;2023-06-01T05:15:01;14.00;14.10
42841;DHT22;28491;46.898;7.660;2023-06-01T05:17:26;14.20;11.80
42841;DHT22;28491;46.898;7.660;2023-06-01T05:19:52;14.30;10.70
42841;DHT22;28491;46.898;7.660;2023-06-01T05:22:17;14.50;7.90
42841;DHT22;28491;46.898;7.660;2023-06-01T05:24:43;14.60;3.40
42841;DHT22;28491;46.898;7.660;2023-06-01T05:27:08;14.80;1.00
42841;DHT22;28491;46.898;7.660;2023-06-01T05:29:34;14.90;1.00
42841;DHT22;28491;46.898;7.660;2023-06-01T05:32:00;15.00;1.00
42841;DHT22;28491;46.898;7.660;2023-06-01T05:34:25;15.10;1.00
42841;DHT22;28491;46.898;7.660;2023-06-01T05:36:51;15.40;1.00
42841;DHT22;28491;46.898;7.660;2023-06-01T05:39:17;15.60;1.00
42841;DHT22;28491;46.898;7.660;2023-06-01T05:41:42;15.70;1.00
42841;DHT22;28491;46.898;7.660;2023-06-01T05:44:08;15.90;1.00
42841;DHT22;28491;46.898;7.660;2023-06-01T05:46:33;16.10;1.00
42841;DHT22;28491;46.898;7.660;2023-06-01T05:48:59;16.40;1.00
42841;DHT22;28491;46.898;7.660;2023-06-01T05:51:25;16.70;1.00
42841;DHT22;28491;46.898;7.660;2023-06-01T05:53:50;17.10;1.00
42841;DHT22;28491;46.898;7.660;2023-06-01T05:56:16;17.70;1.00
42841;DHT22;28491;46.898;7.660;2023-06-01T05:58:42;18.10;1.00
42841;DHT22;28491;46.898;7.660;2023-06-01T06:01:08;18.40;1.00
42841;DHT22;28491;46.898;7.660;2023-06-01T06:03:35;18.90;1.00
42841;DHT22;28491;46.898;7.660;2023-06-01T06:06:02;19.40;1.00
42841;DHT22;28491;46.898;7.660;2023-06-01T06:08:28;19.90;1.00
42841;DHT22;28491;46.898;7.660;2023-06-01T06:10:54;20.40;1.00
42841;DHT22;28491;46.898;7.660;2023-06-01T06:13:20;20.70;1.00
42841;DHT22;28491;46.898;7.660;2023-06-01T06:15:45;21.10;1.00
42841;DHT22;28491;46.898;7.660;2023-06-01T06:18:11;21.70;1.00
42841;DHT22;28491;46.898;7.660;2023-06-01T06:20:36;21.90;1.00
42841;DHT22;28491;46.898;7.660;2023-06-01T06:23:02;22.10;1.00
42841;DHT22;28491;46.898;7.660;2023-06-01T06:25:27;22.50;1.00
42841;DHT22;28491;46.898;7.660;2023-06-01T06:27:53;22.70;1.00
42841;DHT22;28491;46.898;7.660;2023-06-01T06:30:18;22.80;1.00
42841;DHT22;28491;46.898;7.660;2023-06-01T06:32:44;22.60;1.00
42841;DHT22;28491;46.898;7.660;2023-06-01T06:35:10;23.00;1.00
42841;DHT22;28491;46.898;7.660;2023-06-01T06:37:40;23.20;1.00
42841;DHT22;28491;46.898;7.660;2023-06-01T06:40:06;23.50;1.00
42841;DHT22;28491;46.898;7.660;2023-06-01T06:42:31;23.70;1.00
42841;DHT22;28491;46.898;7.660;2023-06-01T06:44:57;24.20;1.00
42841;DHT22;28491;46.898;7.660;2023-06-01T06:47:23;24.50;1.00
42841;DHT22;28491;46.898;7.660;2023-06-01T06:49:50;24.70;1.00
42841;DHT22;28491;46.898;7.660;2023-06-01T06:52:16;24.60;1.00
42841;DHT22;28491;46.898;7.660;2023-06-01T06:54:42;24.70;1.00
42841;DHT22;28491;46.898;7.660;2023-06-01T06:57:08;24.80;1.00
42841;DHT22;28491;46.898;7.660;2023-06-01T06:59:33;24.90;1.00
42841;DHT22;28491;46.898;7.660;2023-06-01T07:01:59;25.20;1.00
42841;DHT22;28491;46.898;7.660;2023-06-01T07:04:25;24.90;1.00
42841;DHT22;28491;46.898;7.660;2023-06-01T07:06:50;25.20;1.00
42841;DHT22;28491;46.898;7.660;2023-06-01T07:09:17;25.40;1.00
42841;DHT22;28491;46.898;7.660;2023-06-01T07:11:42;25.60;1.00
42841;DHT22;28491;46.898;7.660;2023-06-01T07:14:08;25.90;1.00
42841;DHT22;28491;46.898;7.660;2023-06-01T07:16:34;25.90;1.00
42841;DHT22;28491;46.898;7.660;2023-06-01T07:18:59;26.00;1.00
42841;DHT22;28491;46.898;7.660;2023-06-01T07:21:25;26.30;1.00
42841;DHT22;28491;46.898;7.660;2023-06-01T07:23:51;26.40;1.00
42841;DHT22;28491;46.898;7.660;2023-06-01T07:26:16;26.50;1.00
42841;DHT22;28491;46.898;7.660;2023-06-01T07:28:42;26.80;1.00
42841;DHT22;28491;46.898;7.660;2023-06-01T07:31:08;26.40;1.00
42841;DHT22;28491;46.898;7.660;2023-06-01T07:33:34;26.40;1.00
42841;DHT22;28491;46.898;7.660;2023-06-01T07:36:01;26.70;1.00
42841;DHT22;28491;46.898;7.660;2023-06-01T07:38:27;27.40;1.00
42841;DHT22;28491;46.898;7.660;2023-06-01T07:40:52;27.40;1.00
42841;DHT22;28491;46.898;7.660;2023-06-01T07:43:18;27.20;1.00
42841;DHT22;28491;46.898;7.660;2023-06-01T07:45:44;27.30;1.00
42841;DHT22;28491;46.898;7.660;2023-06-01T07:48:09;27.30;1.00
42841;DHT22;28491;46.898;7.660;2023-06-01T07:50:35;27.50;1.00
42841;DHT22;28491;46.898;7.660;2023-06-01T07:53:01;27.60;1.00
42841;DHT22;28491;46.898;7.660;2023-06-01T07:55:28;27.50;1.00
42841;DHT22;28491;46.898;7.660;2023-06-01T07:57:53;27.70;1.00
42841;DHT22;28491;46.898;7.660;2023-06-01T08:00:19;27.90;1.00
42841;DHT22;28491;46.898;7.660;2023-06-01T08:02:45;28.30;1.00
42841;DHT22;28491;46.898;7.660;2023-06-01T08:05:11;28.40;1.00
42841;DHT22;28491;46.898;7.660;2023-06-01T08:07:37;28.10;1.00
42841;DHT22;28491;46.898;7.660;2023-06-01T08:10:04;28.10;1.00
42841;DHT22;28491;46.898;7.660;2023-06-01T08:12:31;28.20;1.00
42841;DHT22;28491;46.898;7.660;2023-06-01T08:14:57;28.40;1.00
42841;DHT22;28491;46.898;7.660;2023-06-01T08:17:24;28.70;1.00
42841;DHT22;28491;46.898;7.660;2023-06-01T08:19:49;28.60;1.00
42841;DHT22;28491;46.898;7.660;2023-06-01T08:22:16;28.70;1.00
42841;DHT22;28491;46.898;7.660;2023-06-01T08:24:41;28.70;1.00
42841;DHT22;28491;46.898;7.660;2023-06-01T08:27:23;28.40;1.00
42841;DHT22;28491;46.898;7.660;2023-06-01T08:29:49;28.80;1.00
42841;DHT22;28491;46.898;7.660;2023-06-01T08:32:16;29.00;1.00
42841;DHT22;28491;46.898;7.660;2023-06-01T08:34:45;29.20;1.00
42841;DHT22;28491;46.898;7.660;2023-06-01T08:37:12;29.10;1.00
42841;DHT22;28491;46.898;7.660;2023-06-01T08:39:38;29.40;1.00
42841;DHT22;28491;46.898;7.660;2023-06-01T08:42:20;29.50;1.00
42841;DHT22;28491;46.898;7.660;2023-06-01T08:44:53;29.40;1.00
42841;DHT22;28491;46.898;7.660;2023-06-01T08:47:18;29.80;1.00
42841;DHT22;28491;46.898;7.660;2023-06-01T08:49:45;29.90;1.00
42841;DHT22;28491;46.898;7.660;2023-06-01T08:52:19;29.70;1.00
42841;DHT22;28491;46.898;7.660;2023-06-01T08:54:46;29.10;1.00
42841;DHT22;28491;46.898;7.660;2023-06-01T08:57:11;29.70;1.00
42841;DHT22;28491;46.898;7.660;2023-06-01T08:59:37;29.80;1.00
42841;DHT22;28491;46.898;7.660;2023-06-01T09:02:05;30.00;1.00
42841;DHT22;28491;46.898;7.660;2023-06-01T09:04:32;30.00;1.00
42841;DHT22;28491;46.898;7.660;2023-06-01T09:07:01;29.90;1.00
42841;DHT22;28491;46.898;7.660;2023-06-01T09:09:27;29.90;1.00
42841;DHT22;28491;46.898;7.660;2023-06-01T09:12:25;29.50;1.00
42841;DHT22;28491;46.898;7.660;2023-06-01T09:17:37;29.90;1.00
42841;DHT22;28491;46.898;7.660;2023-06-01T09:20:03;29.90;1.00
42841;DHT22;28491;46.898;7.660;2023-06-01T09:22:43;29.80;1.00
42841;DHT22;28491;46.898;7.660;2023-06-01T09:25:09;29.70;1.00
42841;DHT22;28491;46.898;7.660;2023-06-01T09:27:49;30.00;1.00
42841;DHT22;28491;46.898;7.660;2023-06-01T09:30:16;29.60;1.00
42841;DHT22;28491;46.898;7.660;2023-06-01T09:32:42;29.70;1.00
42841;DHT22;28491;46.898;7.660;2023-06-01T09:35:08;29.90;1.00
42841;DHT22;28491;46.898;7.660;2023-06-01T09:37:36;29.90;1.00
42841;DHT22;28491;46.898;7.660;2023-06-01T09:40:01;29.70;1.00
42841;DHT22;28491;46.898;7.660;2023-06-01T09:42:33;30.10;1.00
42841;DHT22;28491;46.898;7.660;2023-06-01T09:45:19;30.50;1.00
42841;DHT22;28491;46.898;7.660;2023-06-01T09:47:46;30.60;1.00
42841;DHT22;28491;46.898;7.660;2023-06-01T09:50:32;30.50;1.00
42841;DHT22;28491;46.898;7.660;2023-06-01T09:52:58;30.60;1.00
42841;DHT22;28491;46.898;7.660;2023-06-01T09:55:24;30.50;1.00
42841;DHT22;28491;46.898;7.660;2023-06-01T09:57:49;30.70;1.00
42841;DHT22;28491;46.898;7.660;2023-06-01T10:00:23;31.10;1.00
42841;DHT22;28491;46.898;7.660;2023-06-01T10:02:52;31.00;1.00
42841;DHT22;28491;46.898;7.660;2023-06-01T10:05:19;30.60;1.00
42841;DHT22;28491;46.898;7.660;2023-06-01T10:07:46;30.20;1.00
42841;DHT22;28491;46.898;7.660;2023-06-01T10:10:14;29.60;1.00
42841;DHT22;28491;46.898;7.660;2023-06-01T10:12:40;29.20;1.00
42841;DHT22;28491;46.898;7.660;2023-06-01T10:15:06;28.90;1.00
42841;DHT22;28491;46.898;7.660;2023-06-01T10:17:33;28.80;1.00
42841;DHT22;28491;46.898;7.660;2023-06-01T10:20:01;28.60;1.00
42841;DHT22;28491;46.898;7.660;2023-06-01T10:22:27;28.50;1.00
42841;DHT22;28491;46.898;7.660;2023-06-01T10:24:56;28.30;1.00
42841;DHT22;28491;46.898;7.660;2023-06-01T10:27:32;28.10;1.00
42841;DHT22;28491;46.898;7.660;2023-06-01T10:29:59;28.10;1.00
42841;DHT22;28491;46.898;7.660;2023-06-01T10:35:03;28.20;1.00
42841;DHT22;28491;46.898;7.660;2023-06-01T10:37:29;28.10;1.00
42841;DHT22;28491;46.898;7.660;2023-06-01T10:40:19;28.20;1.00
42841;DHT22;28491;46.898;7.660;2023-06-01T10:42:45;28.00;1.00
42841;DHT22;28491;46.898;7.660;2023-06-01T10:45:35;27.90;1.00
42841;DHT22;28491;46.898;7.660;2023-06-01T10:48:02;28.10;1.00
42841;DHT22;28491;46.898;7.660;2023-06-01T10:50:27;28.00;1.00
42841;DHT22;28491;46.898;7.660;2023-06-01T10:52:54;28.10;1.00
42841;DHT22;28491;46.898;7.660;2023-06-01T10:55:22;28.30;1.00
42841;DHT22;28491;46.898;7.660;2023-06-01T10:57:48;28.00;1.00
42841;DHT22;28491;46.898;7.660;2023-06-01T11:08:04;28.20;1.00
42841;DHT22;28491;46.898;7.660;2023-06-01T11:10:57;27.90;1.00
42841;DHT22;28491;46.898;7.660;2023-06-01T11:13:33;28.20;1.00
42841;DHT22;28491;46.898;7.660;2023-06-01T11:18:55;28.30;1.00
42841;DHT22;28491;46.898;7.660;2023-06-01T11:23:54;28.30;1.00
42841;DHT22;28491;46.898;7.660;2023-06-01T11:26:22;27.40;1.00
42841;DHT22;28491;46.898;7.660;2023-06-01T11:28:58;27.20;1.00
42841;DHT22;28491;46.898;7.660;2023-06-01T11:31:37;27.20;1.00
42841;DHT22;28491;46.898;7.660;2023-06-01T11:34:03;26.80;1.00
42841;DHT22;28491;46.898;7.660;2023-06-01T11:36:29;26.70;1.00
42841;DHT22;28491;46.898;7.660;2023-06-01T11:38:55;26.60;1.00
42841;DHT22;28491;46.898;7.660;2023-06-01T11:41:21;26.70;1.00
42841;DHT22;28491;46.898;7.660;2023-06-01T11:43:56;26.70;1.00
42841;DHT22;28491;46.898;7.660;2023-06-01T11:46:22;26.70;1.00
42841;DHT22;28491;46.898;7.660;2023-06-01T11:49:03;26.90;1.00
42841;DHT22;28491;46.898;7.660;2023-06-01T11:51:34;27.20;1.00
42841;DHT22;28491;46.898;7.660;2023-06-01T11:54:01;27.20;1.00
42841;DHT22;28491;46.898;7.660;2023-06-01T11:56:32;27.50;1.00
42841;DHT22;28491;46.898;7.660;2023-06-01T11:59:00;27.90;1.00
42841;DHT22;28491;46.898;7.660;2023-06-01T12:01:27;27.90;1.00
42841;DHT22;28491;46.898;7.660;2023-06-01T12:03:54;27.70;1.00
42841;DHT22;28491;46.898;7.660;2023-06-01T12:06:23;27.90;1.00
42841;DHT22;28491;46.898;7.660;2023-06-01T12:08:50;27.70;1.00
42841;DHT22;28491;46.898;7.660;2023-06-01T12:11:26;27.80;1.00
42841;DHT22;28491;46.898;7.660;2023-06-01T12:13:55;27.80;1.00
42841;DHT22;28491;46.898;7.660;2023-06-01T12:16:22;27.60;1.00
42841;DHT22;28491;46.898;7.660;2023-06-01T12:18:48;27.40;1.00
42841;DHT22;28491;46.898;7.660;2023-06-01T12:21:14;27.10;1.00
42841;DHT22;28491;46.898;7.660;2023-06-01T12:23:40;26.60;1.00
42841;DHT22;28491;46.898;7.660;2023-06-01T12:26:07;26.30;1.00
42841;DHT22;28491;46.898;7.660;2023-06-01T12:29:06;26.10;1.00
42841;DHT22;28491;46.898;7.660;2023-06-01T12:31:32;25.80;1.00
42841;DHT22;28491;46.898;7.660;2023-06-01T12:33:57;26.00;1.00
42841;DHT22;28491;46.898;7.660;2023-06-01T12:36:33;26.70;1.00
42841;DHT22;28491;46.898;7.660;2023-06-01T12:39:01;26.80;1.00
42841;DHT22;28491;46.898;7.660;2023-06-01T12:41:28;26.90;1.00
42841;DHT22;28491;46.898;7.660;2023-06-01T12:43:56;27.30;1.00
42841;DHT22;28491;46.898;7.660;2023-06-01T12:46:28;27.40;1.00
42841;DHT22;28491;46.898;7.660;2023-06-01T12:49:17;27.40;1.00
42841;DHT22;28491;46.898;7.660;2023-06-01T12:51:43;27.10;1.00
42841;DHT22;28491;46.898;7.660;2023-06-01T12:54:09;26.80;1.00
42841;DHT22;28491;46.898;7.660;2023-06-01T12:56:34;26.50;1.00
42841;DHT22;28491;46.898;7.660;2023-06-01T12:59:00;26.00;1.00
42841;DHT22;28491;46.898;7.660;2023-06-01T13:01:25;25.50;1.00
42841;DHT22;28491;46.898;7.660;2023-06-01T13:03:51;25.30;1.00
42841;DHT22;28491;46.898;7.660;2023-06-01T13:06:18;25.00;1.00
42841;DHT22;28491;46.898;7.660;2023-06-01T13:08:44;24.80;1.00
42841;DHT22;28491;46.898;7.660;2023-06-01T13:11:09;24.60;1.00
42841;DHT22;28491;46.898;7.660;2023-06-01T13:13:35;24.50;1.00
42841;DHT22;28491;46.898;7.660;2023-06-01T13:16:01;24.40;1.00
42841;DHT22;28491;46.898;7.660;2023-06-01T13:18:28;24.40;1.00
42841;DHT22;28491;46.898;7.660;2023-06-01T13:20:53;24.30;1.00
42841;DHT22;28491;46.898;7.660;2023-06-01T13:23:19;24.20;1.00
42841;DHT22;28491;46.898;7.660;2023-06-01T13:25:45;24.30;1.00
42841;DHT22;28491;46.898;7.660;2023-06-01T13:28:10;24.30;1.00
42841;DHT22;28491;46.898;7.660;2023-06-01T13:30:37;23.90;1.00
42841;DHT22;28491;46.898;7.660;2023-06-01T13:33:04;23.00;1.00
42841;DHT22;28491;46.898;7.660;2023-06-01T13:35:31;22.50;1.00
42841;DHT22;28491;46.898;7.660;2023-06-01T13:37:57;22.00;1.00
42841;DHT22;28491;46.898;7.660;2023-06-01T13:40:23;21.40;1.00
42841;DHT22;28491;46.898;7.660;2023-06-01T13:42:50;20.80;1.00
42841;DHT22;28491;46.898;7.660;2023-06-01T13:45:17;19.40;43.80
42841;DHT22;28491;46.898;7.660;2023-06-01T13:47:43;18.40;90.60
42841;DHT22;28491;46.898;7.660;2023-06-01T13:50:09;18.00;92.80
42841;DHT22;28491;46.898;7.660;2023-06-01T13:52:36;18.10;98.40
42841;DHT22;28491;46.898;7.660;2023-06-01T13:55:02;18.20;99.00
42841;DHT22;28491;46.898;7.660;2023-06-01T13:57:28;18.20;99.90
42841;DHT22;28491;46.898;7.660;2023-06-01T13:59:54;18.20;99.50
42841;DHT22;28491;46.898;7.660;2023-06-01T14:02:19;18.20;99.90
42841;DHT22;28491;46.898;7.660;2023-06-01T14:04:46;18.20;98.60
42841;DHT22;28491;46.898;7.660;2023-06-01T14:07:11;18.00;94.70
42841;DHT22;28491;46.898;7.660;2023-06-01T14:09:37;18.10;97.60
42841;DHT22;28491;46.898;7.660;2023-06-01T14:12:02;18.20;98.30
42841;DHT22;28491;46.898;7.660;2023-06-01T14:14:28;18.30;97.30
42841;DHT22;28491;46.898;7.660;2023-06-01T14:16:54;18.30;94.70
42841;DHT22;28491;46.898;7.660;2023-06-01T14:19:19;18.40;95.40
42841;DHT22;28491;46.898;7.660;2023-06-01T14:21:45;18.60;96.30
42841;DHT22;28491;46.898;7.660;2023-06-01T14:24:10;18.60;90.60
42841;DHT22;28491;46.898;7.660;2023-06-01T14:26:36;18.60;88.80
42841;DHT22;28491;46.898;7.660;2023-06-01T14:29:01;18.60;90.60
42841;DHT22;28491;46.898;7.660;2023-06-01T14:31:27;18.50;90.40
42841;DHT22;28491;46.898;7.660;2023-06-01T14:33:52;18.50;92.80
42841;DHT22;28491;46.898;7.660;2023-06-01T14:36:18;18.50;91.20
42841;DHT22;28491;46.898;7.660;2023-06-01T14:38:45;18.50;92.30
42841;DHT22;28491;46.898;7.660;2023-06-01T14:41:11;18.50;92.60
42841;DHT22;28491;46.898;7.660;2023-06-01T14:43:36;18.40;93.70
42841;DHT22;28491;46.898;7.660;2023-06-01T14:46:04;18.20;93.10
42841;DHT22;28491;46.898;7.660;2023-06-01T14:48:30;18.20;93.60
42841;DHT22;28491;46.898;7.660;2023-06-01T14:50:55;18.20;93.40
42841;DHT22;28491;46.898;7.660;2023-06-01T14:53:21;18.20;91.70
42841;DHT22;28491;46.898;7.660;2023-06-01T14:55:47;18.50;94.80
42841;DHT22;28491;46.898;7.660;2023-06-01T14:58:12;18.40;88.70
42841;DHT22;28491;46.898;7.660;2023-06-01T15:00:38;18.30;88.80
42841;DHT22;28491;46.898;7.660;2023-06-01T15:03:04;18.20;89.70
42841;DHT22;28491;46.898;7.660;2023-06-01T15:05:30;18.20;93.60
42841;DHT22;28491;46.898;7.660;2023-06-01T15:07:56;18.30;93.50
42841;DHT22;28491;46.898;7.660;2023-06-01T15:10:21;18.30;92.60
42841;DHT22;28491;46.898;7.660;2023-06-01T15:12:47;18.20;90.50
42841;DHT22;28491;46.898;7.660;2023-06-01T15:15:13;18.30;92.70
42841;DHT22;28491;46.898;7.660;2023-06-01T15:17:39;18.30;92.70
42841;DHT22;28491;46.898;7.660;2023-06-01T15:20:07;18.40;94.20
42841;DHT22;28491;46.898;7.660;2023-06-01T15:22:33;18.30;90.50
42841;DHT22;28491;46.898;7.660;2023-06-01T15:24:58;18.30;86.20
42841;DHT22;28491;46.898;7.660;2023-06-01T15:27:24;18.40;88.50
42841;DHT22;28491;46.898;7.660;2023-06-01T15:29:49;18.50;90.60
42841;DHT22;28491;46.898;7.660;2023-06-01T15:32:15;18.70;91.40
42841;DHT22;28491;46.898;7.660;2023-06-01T15:34:41;19.00;93.70
42841;DHT22;28491;46.898;7.660;2023-06-01T15:37:12;19.40;91.10
42841;DHT22;28491;46.898;7.660;2023-06-01T15:39:39;19.80;91.40
42841;DHT22;28491;46.898;7.660;2023-06-01T15:42:06;20.00;83.30
42841;DHT22;28491;46.898;7.660;2023-06-01T15:44:32;20.30;85.60
42841;DHT22;28491;46.898;7.660;2023-06-01T15:46:58;20.60;77.50
42841;DHT22;28491;46.898;7.660;2023-06-01T15:49:24;20.70;68.50
42841;DHT22;28491;46.898;7.660;2023-06-01T15:51:49;20.80;68.80
42841;DHT22;28491;46.898;7.660;2023-06-01T15:54:15;21.00;68.40
42841;DHT22;28491;46.898;7.660;2023-06-01T15:56:42;21.00;62.60
42841;DHT22;28491;46.898;7.660;2023-06-01T15:59:08;20.90;62.00
42841;DHT22;28491;46.898;7.660;2023-06-01T16:01:33;20.90;61.50
42841;DHT22;28491;46.898;7.660;2023-06-01T16:03:59;21.00;62.70
42841;DHT22;28491;46.898;7.660;2023-06-01T16:06:24;21.10;62.00